sensor_id;sensor_type;location;lat;lon;timestamp;P1;durP1;ratioP1;P2;durP2;ratioP2
56413;SDS011;42318;48.452;19.526;2023-11-18T00:00:33;3.30;;;1.75;;
56413;SDS011;42318;48.452;19.526;2023-11-18T00:03:54;4.00;;;2.00;;
56413;SDS011;42318;48.452;19.526;2023-11-18T00:06:55;2.95;;;2.13;;
56413;SDS011;42318;48.452;19.526;2023-11-18T00:09:57;3.08;;;1.80;;
56413;SDS011;42318;48.452;19.526;2023-11-18T00:12:58;3.45;;;1.73;;
56413;SDS011;42318;48.452;19.526;2023-11-18T00:15:58;2.88;;;2.05;;
56413;SDS011;42318;48.452;19.526;2023-11-18T00:18:59;3.65;;;1.77;;
56413;SDS011;42318;48.452;19.526;2023-11-18T00:22:01;2.97;;;1.90;;
56413;SDS011;42318;48.452;19.526;2023-11-18T00:25:02;2.88;;;1.98;;
56413;SDS011;42318;48.452;19.526;2023-11-18T00:28:07;2.63;;;1.73;;
56413;SDS011;42318;48.452;19.526;2023-11-18T00:31:08;3.75;;;2.00;;
56413;SDS011;42318;48.452;19.526;2023-11-18T00:34:09;3.08;;;1.92;;
56413;SDS011;42318;48.452;19.526;2023-11-18T00:37:11;3.67;;;1.85;;
56413;SDS011;42318;48.452;19.526;2023-11-18T00:40:11;3.20;;;1.80;;
56413;SDS011;42318;48.452;19.526;2023-11-18T00:43:12;3.58;;;1.73;;
56413;SDS011;42318;48.452;19.526;2023-11-18T00:46:13;5.13;;;1.92;;
56413;SDS011;42318;48.452;19.526;2023-11-18T00:49:13;2.47;;;1.40;;
56413;SDS011;42318;48.452;19.526;2023-11-18T00:52:14;3.83;;;1.90;;
56413;SDS011;42318;48.452;19.526;2023-11-18T00:55:15;3.60;;;2.05;;
56413;SDS011;42318;48.452;19.526;2023-11-18T00:58:18;2.42;;;1.60;;
56413;SDS011;42318;48.452;19.526;2023-11-18T01:01:19;2.30;;;1.60;;
56413;SDS011;42318;48.452;19.526;2023-11-18T01:04:19;2.22;;;1.80;;
56413;SDS011;42318;48.452;19.526;2023-11-18T01:07:20;4.05;;;1.95;;
56413;SDS011;42318;48.452;19.526;2023-11-18T01:10:21;3.08;;;1.60;;
56413;SDS011;42318;48.452;19.526;2023-11-18T01:13:21;2.97;;;1.88;;
56413;SDS011;42318;48.452;19.526;2023-11-18T01:16:22;3.17;;;2.20;;
56413;SDS011;42318;48.452;19.526;2023-11-18T01:19:23;3.88;;;2.00;;
56413;SDS011;42318;48.452;19.526;2023-11-18T01:22:24;2.45;;;1.60;;
56413;SDS011;42318;48.452;19.526;2023-11-18T01:25:25;3.17;;;1.50;;
56413;SDS011;42318;48.452;19.526;2023-11-18T01:28:25;2.47;;;1.58;;
56413;SDS011;42318;48.452;19.526;2023-11-18T01:31:26;2.13;;;1.42;;
56413;SDS011;42318;48.452;19.526;2023-11-18T01:34:27;2.25;;;1.50;;
56413;SDS011;42318;48.452;19.526;2023-11-18T01:37:28;2.10;;;1.45;;
56413;SDS011;42318;48.452;19.526;2023-11-18T01:40:29;3.10;;;1.70;;
56413;SDS011;42318;48.452;19.526;2023-11-18T01:43:31;2.63;;;1.33;;
56413;SDS011;42318;48.452;19.526;2023-11-18T01:46:32;3.50;;;1.48;;
56413;SDS011;42318;48.452;19.526;2023-11-18T01:49:34;3.33;;;1.70;;
56413;SDS011;42318;48.452;19.526;2023-11-18T01:52:39;2.95;;;1.60;;
56413;SDS011;42318;48.452;19.526;2023-11-18T01:55:41;5.53;;;1.60;;
56413;SDS011;42318;48.452;19.526;2023-11-18T01:58:42;2.22;;;1.42;;
56413;SDS011;42318;48.452;19.526;2023-11-18T02:01:46;2.33;;;1.38;;
56413;SDS011;42318;48.452;19.526;2023-11-18T02:04:48;3.72;;;1.35;;
56413;SDS011;42318;48.452;19.526;2023-11-18T02:07:49;3.42;;;1.33;;
56413;SDS011;42318;48.452;19.526;2023-11-18T02:11:00;1.50;;;1.10;;
56413;SDS011;42318;48.452;19.526;2023-11-18T02:14:13;2.05;;;1.27;;
56413;SDS011;42318;48.452;19.526;2023-11-18T02:17:17;2.10;;;1.27;;
56413;SDS011;42318;48.452;19.526;2023-11-18T02:20:23;4.13;;;1.88;;
56413;SDS011;42318;48.452;19.526;2023-11-18T02:23:24;2.83;;;1.38;;
56413;SDS011;42318;48.452;19.526;2023-11-18T02:26:28;3.80;;;1.60;;
56413;SDS011;42318;48.452;19.526;2023-11-18T02:29:29;1.95;;;1.33;;
56413;SDS011;42318;48.452;19.526;2023-11-18T02:32:37;4.43;;;1.60;;
56413;SDS011;42318;48.452;19.526;2023-11-18T02:35:46;2.10;;;1.38;;
56413;SDS011;42318;48.452;19.526;2023-11-18T02:38:52;1.85;;;1.27;;
56413;SDS011;42318;48.452;19.526;2023-11-18T02:41:55;3.17;;;1.58;;
56413;SDS011;42318;48.452;19.526;2023-11-18T02:44:58;2.30;;;1.23;;
56413;SDS011;42318;48.452;19.526;2023-11-18T02:47:59;2.72;;;1.40;;
56413;SDS011;42318;48.452;19.526;2023-11-18T02:51:00;1.73;;;1.10;;
56413;SDS011;42318;48.452;19.526;2023-11-18T02:54:01;1.70;;;1.25;;
56413;SDS011;42318;48.452;19.526;2023-11-18T02:57:03;2.13;;;1.33;;
56413;SDS011;42318;48.452;19.526;2023-11-18T03:00:06;2.28;;;1.10;;
56413;SDS011;42318;48.452;19.526;2023-11-18T03:03:17;1.85;;;1.20;;
56413;SDS011;42318;48.452;19.526;2023-11-18T03:06:18;2.75;;;1.77;;
56413;SDS011;42318;48.452;19.526;2023-11-18T03:09:19;2.60;;;1.20;;
56413;SDS011;42318;48.452;19.526;2023-11-18T03:12:19;2.42;;;1.60;;
56413;SDS011;42318;48.452;19.526;2023-11-18T03:15:20;2.03;;;1.10;;
56413;SDS011;42318;48.452;19.526;2023-11-18T03:18:22;2.17;;;1.30;;
56413;SDS011;42318;48.452;19.526;2023-11-18T03:21:23;3.85;;;2.15;;
56413;SDS011;42318;48.452;19.526;2023-11-18T03:24:24;1.63;;;0.85;;
56413;SDS011;42318;48.452;19.526;2023-11-18T03:27:25;2.55;;;1.40;;
56413;SDS011;42318;48.452;19.526;2023-11-18T03:30:26;2.92;;;1.23;;
56413;SDS011;42318;48.452;19.526;2023-11-18T03:33:29;1.30;;;1.00;;
56413;SDS011;42318;48.452;19.526;2023-11-18T03:36:29;2.20;;;1.17;;
56413;SDS011;42318;48.452;19.526;2023-11-18T03:39:30;2.58;;;1.10;;
56413;SDS011;42318;48.452;19.526;2023-11-18T03:42:31;3.33;;;1.10;;
56413;SDS011;42318;48.452;19.526;2023-11-18T03:45:31;2.13;;;1.25;;
56413;SDS011;42318;48.452;19.526;2023-11-18T03:48:32;1.42;;;0.85;;
56413;SDS011;42318;48.452;19.526;2023-11-18T03:51:33;2.20;;;1.30;;
56413;SDS011;42318;48.452;19.526;2023-11-18T03:54:34;1.67;;;1.08;;
56413;SDS011;42318;48.452;19.526;2023-11-18T03:57:34;2.83;;;1.17;;
56413;SDS011;42318;48.452;19.526;2023-11-18T04:00:35;3.10;;;1.10;;
56413;SDS011;42318;48.452;19.526;2023-11-18T04:03:36;2.30;;;1.05;;
56413;SDS011;42318;48.452;19.526;2023-11-18T04:06:37;1.50;;;1.00;;
56413;SDS011;42318;48.452;19.526;2023-11-18T04:09:37;2.10;;;1.35;;
56413;SDS011;42318;48.452;19.526;2023-11-18T04:12:41;1.85;;;1.20;;
56413;SDS011;42318;48.452;19.526;2023-11-18T04:15:46;1.38;;;0.98;;
56413;SDS011;42318;48.452;19.526;2023-11-18T04:18:47;0.90;;;0.80;;
56413;SDS011;42318;48.452;19.526;2023-11-18T04:21:48;1.80;;;1.20;;
56413;SDS011;42318;48.452;19.526;2023-11-18T04:24:49;2.38;;;0.90;;
56413;SDS011;42318;48.452;19.526;2023-11-18T04:27:50;1.58;;;1.02;;
56413;SDS011;42318;48.452;19.526;2023-11-18T04:33:45;2.95;;;0.90;;
56413;SDS011;42318;48.452;19.526;2023-11-18T04:36:46;1.30;;;1.00;;
56413;SDS011;42318;48.452;19.526;2023-11-18T04:39:46;2.28;;;1.05;;
56413;SDS011;42318;48.452;19.526;2023-11-18T04:42:47;2.38;;;1.17;;
56413;SDS011;42318;48.452;19.526;2023-11-18T04:45:47;1.27;;;0.90;;
56413;SDS011;42318;48.452;19.526;2023-11-18T04:48:48;2.10;;;1.13;;
56413;SDS011;42318;48.452;19.526;2023-11-18T04:51:49;1.17;;;0.93;;
56413;SDS011;42318;48.452;19.526;2023-11-18T04:54:49;2.13;;;1.20;;
56413;SDS011;42318;48.452;19.526;2023-11-18T04:57:50;2.03;;;0.95;;
56413;SDS011;42318;48.452;19.526;2023-11-18T05:00:51;1.65;;;0.90;;
56413;SDS011;42318;48.452;19.526;2023-11-18T05:03:51;3.55;;;1.00;;
56413;SDS011;42318;48.452;19.526;2023-11-18T05:06:52;0.95;;;0.80;;
56413;SDS011;42318;48.452;19.526;2023-11-18T05:09:53;2.38;;;0.73;;
56413;SDS011;42318;48.452;19.526;2023-11-18T05:12:53;2.13;;;0.98;;
56413;SDS011;42318;48.452;19.526;2023-11-18T05:15:55;1.13;;;0.82;;
56413;SDS011;42318;48.452;19.526;2023-11-18T05:18:56;2.53;;;0.85;;
56413;SDS011;42318;48.452;19.526;2023-11-18T05:21:57;1.88;;;0.90;;
56413;SDS011;42318;48.452;19.526;2023-11-18T05:24:57;1.30;;;0.70;;
56413;SDS011;42318;48.452;19.526;2023-11-18T05:27:58;0.93;;;0.63;;
56413;SDS011;42318;48.452;19.526;2023-11-18T05:31:00;1.25;;;0.80;;
56413;SDS011;42318;48.452;19.526;2023-11-18T05:34:05;1.05;;;0.90;;
56413;SDS011;42318;48.452;19.526;2023-11-18T05:37:05;1.15;;;0.80;;
56413;SDS011;42318;48.452;19.526;2023-11-18T05:40:07;0.70;;;0.70;;
56413;SDS011;42318;48.452;19.526;2023-11-18T05:43:08;1.75;;;0.98;;
56413;SDS011;42318;48.452;19.526;2023-11-18T05:46:16;1.20;;;0.80;;
56413;SDS011;42318;48.452;19.526;2023-11-18T05:49:24;1.17;;;0.70;;
56413;SDS011;42318;48.452;19.526;2023-11-18T05:52:25;0.90;;;0.70;;
56413;SDS011;42318;48.452;19.526;2023-11-18T05:55:27;1.35;;;0.80;;
56413;SDS011;42318;48.452;19.526;2023-11-18T05:58:27;2.50;;;1.15;;
56413;SDS011;42318;48.452;19.526;2023-11-18T06:01:29;1.25;;;0.80;;
56413;SDS011;42318;48.452;19.526;2023-11-18T06:04:30;1.23;;;0.73;;
56413;SDS011;42318;48.452;19.526;2023-11-18T06:07:31;1.13;;;0.65;;
56413;SDS011;42318;48.452;19.526;2023-11-18T06:10:31;1.27;;;1.10;;
56413;SDS011;42318;48.452;19.526;2023-11-18T06:13:33;1.65;;;0.90;;
56413;SDS011;42318;48.452;19.526;2023-11-18T06:16:36;0.90;;;0.60;;
56413;SDS011;42318;48.452;19.526;2023-11-18T06:19:38;0.82;;;0.70;;
56413;SDS011;42318;48.452;19.526;2023-11-18T06:22:38;1.52;;;0.80;;
56413;SDS011;42318;48.452;19.526;2023-11-18T06:25:39;2.00;;;0.93;;
56413;SDS011;42318;48.452;19.526;2023-11-18T06:28:43;0.90;;;0.70;;
56413;SDS011;42318;48.452;19.526;2023-11-18T06:31:45;1.33;;;0.80;;
56413;SDS011;42318;48.452;19.526;2023-11-18T06:34:46;2.25;;;0.80;;
56413;SDS011;42318;48.452;19.526;2023-11-18T06:37:47;1.02;;;0.70;;
56413;SDS011;42318;48.452;19.526;2023-11-18T06:40:47;1.10;;;0.57;;
56413;SDS011;42318;48.452;19.526;2023-11-18T06:43:52;1.50;;;0.77;;
56413;SDS011;42318;48.452;19.526;2023-11-18T06:46:55;3.05;;;0.80;;
56413;SDS011;42318;48.452;19.526;2023-11-18T06:49:56;1.20;;;0.77;;
56413;SDS011;42318;48.452;19.526;2023-11-18T06:52:56;1.00;;;0.50;;
56413;SDS011;42318;48.452;19.526;2023-11-18T06:55:57;1.58;;;0.70;;
56413;SDS011;42318;48.452;19.526;2023-11-18T06:58:58;1.98;;;0.60;;
56413;SDS011;42318;48.452;19.526;2023-11-18T07:01:58;0.80;;;0.60;;
56413;SDS011;42318;48.452;19.526;2023-11-18T07:04:59;1.23;;;0.82;;
56413;SDS011;42318;48.452;19.526;2023-11-18T07:08:00;1.30;;;0.70;;
56413;SDS011;42318;48.452;19.526;2023-11-18T07:11:00;2.47;;;1.25;;
56413;SDS011;42318;48.452;19.526;2023-11-18T07:14:02;5.70;;;0.70;;
56413;SDS011;42318;48.452;19.526;2023-11-18T07:17:03;0.60;;;0.60;;
56413;SDS011;42318;48.452;19.526;2023-11-18T07:20:05;1.00;;;0.60;;
56413;SDS011;42318;48.452;19.526;2023-11-18T07:23:06;3.80;;;0.90;;
56413;SDS011;42318;48.452;19.526;2023-11-18T07:26:09;2.70;;;0.90;;
56413;SDS011;42318;48.452;19.526;2023-11-18T07:29:14;2.38;;;1.25;;
56413;SDS011;42318;48.452;19.526;2023-11-18T07:32:14;5.05;;;1.02;;
56413;SDS011;42318;48.452;19.526;2023-11-18T07:35:15;5.65;;;0.93;;
56413;SDS011;42318;48.452;19.526;2023-11-18T07:38:16;4.03;;;0.95;;
56413;SDS011;42318;48.452;19.526;2023-11-18T07:41:20;3.35;;;1.17;;
56413;SDS011;42318;48.452;19.526;2023-11-18T07:44:28;3.63;;;0.90;;
56413;SDS011;42318;48.452;19.526;2023-11-18T07:47:29;2.42;;;0.90;;
56413;SDS011;42318;48.452;19.526;2023-11-18T07:50:35;4.03;;;1.05;;
56413;SDS011;42318;48.452;19.526;2023-11-18T07:53:37;5.20;;;1.05;;
56413;SDS011;42318;48.452;19.526;2023-11-18T07:56:40;4.80;;;0.93;;
56413;SDS011;42318;48.452;19.526;2023-11-18T07:59:41;5.45;;;1.00;;
56413;SDS011;42318;48.452;19.526;2023-11-18T08:02:42;2.00;;;0.98;;
56413;SDS011;42318;48.452;19.526;2023-11-18T08:05:43;5.95;;;1.30;;
56413;SDS011;42318;48.452;19.526;2023-11-18T08:08:45;2.88;;;1.05;;
56413;SDS011;42318;48.452;19.526;2023-11-18T08:11:48;2.83;;;1.15;;
56413;SDS011;42318;48.452;19.526;2023-11-18T08:14:49;3.25;;;0.80;;
56413;SDS011;42318;48.452;19.526;2023-11-18T08:17:50;3.85;;;0.98;;
56413;SDS011;42318;48.452;19.526;2023-11-18T08:20:51;2.03;;;0.90;;
56413;SDS011;42318;48.452;19.526;2023-11-18T08:23:52;3.50;;;1.02;;
56413;SDS011;42318;48.452;19.526;2023-11-18T08:26:53;8.23;;;2.20;;
56413;SDS011;42318;48.452;19.526;2023-11-18T08:29:54;2.97;;;0.82;;
56413;SDS011;42318;48.452;19.526;2023-11-18T08:32:55;3.25;;;1.00;;
56413;SDS011;42318;48.452;19.526;2023-11-18T08:35:56;3.00;;;0.82;;
56413;SDS011;42318;48.452;19.526;2023-11-18T08:38:57;5.55;;;0.90;;
56413;SDS011;42318;48.452;19.526;2023-11-18T08:41:58;4.47;;;0.85;;
56413;SDS011;42318;48.452;19.526;2023-11-18T08:44:59;3.92;;;0.90;;
56413;SDS011;42318;48.452;19.526;2023-11-18T08:48:01;2.05;;;0.85;;
56413;SDS011;42318;48.452;19.526;2023-11-18T08:51:07;3.30;;;1.13;;
56413;SDS011;42318;48.452;19.526;2023-11-18T08:54:09;3.22;;;1.42;;
56413;SDS011;42318;48.452;19.526;2023-11-18T08:57:22;2.05;;;0.95;;
56413;SDS011;42318;48.452;19.526;2023-11-18T09:00:26;3.92;;;0.88;;
56413;SDS011;42318;48.452;19.526;2023-11-18T09:03:43;1.88;;;0.80;;
56413;SDS011;42318;48.452;19.526;2023-11-18T09:06:49;2.47;;;0.80;;
56413;SDS011;42318;48.452;19.526;2023-11-18T09:09:54;3.38;;;1.23;;
56413;SDS011;42318;48.452;19.526;2023-11-18T09:12:55;4.38;;;0.98;;
56413;SDS011;42318;48.452;19.526;2023-11-18T09:15:56;5.85;;;1.60;;
56413;SDS011;42318;48.452;19.526;2023-11-18T09:19:03;3.80;;;0.88;;
56413;SDS011;42318;48.452;19.526;2023-11-18T09:22:06;2.40;;;0.82;;
56413;SDS011;42318;48.452;19.526;2023-11-18T09:25:07;1.48;;;0.60;;
56413;SDS011;42318;48.452;19.526;2023-11-18T09:28:09;1.67;;;0.65;;
56413;SDS011;42318;48.452;19.526;2023-11-18T09:31:10;3.63;;;0.77;;
56413;SDS011;42318;48.452;19.526;2023-11-18T09:34:15;2.22;;;1.10;;
56413;SDS011;42318;48.452;19.526;2023-11-18T09:37:17;3.05;;;0.80;;
56413;SDS011;42318;48.452;19.526;2023-11-18T09:40:19;3.20;;;0.82;;
56413;SDS011;42318;48.452;19.526;2023-11-18T09:43:25;1.00;;;0.57;;
56413;SDS011;42318;48.452;19.526;2023-11-18T09:46:26;6.22;;;0.80;;
56413;SDS011;42318;48.452;19.526;2023-11-18T09:49:32;1.45;;;0.65;;
56413;SDS011;42318;48.452;19.526;2023-11-18T09:52:41;1.70;;;0.82;;
56413;SDS011;42318;48.452;19.526;2023-11-18T09:55:44;2.13;;;0.70;;
56413;SDS011;42318;48.452;19.526;2023-11-18T09:58:57;1.60;;;0.68;;
56413;SDS011;42318;48.452;19.526;2023-11-18T10:02:05;1.67;;;0.60;;
56413;SDS011;42318;48.452;19.526;2023-11-18T10:05:11;3.08;;;0.65;;
56413;SDS011;42318;48.452;19.526;2023-11-18T10:08:13;2.22;;;0.60;;
56413;SDS011;42318;48.452;19.526;2023-11-18T10:11:16;2.08;;;0.70;;
56413;SDS011;42318;48.452;19.526;2023-11-18T10:14:17;1.13;;;0.68;;
56413;SDS011;42318;48.452;19.526;2023-11-18T10:17:18;2.03;;;0.50;;
56413;SDS011;42318;48.452;19.526;2023-11-18T10:20:22;1.95;;;0.70;;
56413;SDS011;42318;48.452;19.526;2023-11-18T10:23:42;3.80;;;0.50;;
56413;SDS011;42318;48.452;19.526;2023-11-18T10:26:59;2.42;;;0.80;;
56413;SDS011;42318;48.452;19.526;2023-11-18T10:30:02;1.90;;;0.77;;
56413;SDS011;42318;48.452;19.526;2023-11-18T10:33:04;3.80;;;0.82;;
56413;SDS011;42318;48.452;19.526;2023-11-18T10:36:18;2.22;;;0.65;;
56413;SDS011;42318;48.452;19.526;2023-11-18T10:39:23;2.10;;;0.82;;
56413;SDS011;42318;48.452;19.526;2023-11-18T10:42:31;4.22;;;0.63;;
56413;SDS011;42318;48.452;19.526;2023-11-18T10:45:33;4.45;;;1.20;;
56413;SDS011;42318;48.452;19.526;2023-11-18T10:48:33;4.57;;;0.98;;
56413;SDS011;42318;48.452;19.526;2023-11-18T10:51:35;12.82;;;0.95;;
56413;SDS011;42318;48.452;19.526;2023-11-18T10:54:49;2.95;;;0.82;;
56413;SDS011;42318;48.452;19.526;2023-11-18T10:57:54;2.00;;;0.80;;
56413;SDS011;42318;48.452;19.526;2023-11-18T11:00:55;3.80;;;0.80;;
56413;SDS011;42318;48.452;19.526;2023-11-18T11:03:56;3.65;;;0.90;;
56413;SDS011;42318;48.452;19.526;2023-11-18T11:06:57;4.72;;;0.95;;
56413;SDS011;42318;48.452;19.526;2023-11-18T11:10:01;3.28;;;0.98;;
56413;SDS011;42318;48.452;19.526;2023-11-18T11:13:04;4.38;;;0.93;;
56413;SDS011;42318;48.452;19.526;2023-11-18T11:16:08;3.42;;;0.80;;
56413;SDS011;42318;48.452;19.526;2023-11-18T11:19:15;5.25;;;1.02;;
56413;SDS011;42318;48.452;19.526;2023-11-18T11:22:34;3.33;;;0.77;;
56413;SDS011;42318;48.452;19.526;2023-11-18T11:29:13;3.60;;;1.00;;
56413;SDS011;42318;48.452;19.526;2023-11-18T11:32:28;2.25;;;0.75;;
56413;SDS011;42318;48.452;19.526;2023-11-18T11:35:40;2.85;;;1.10;;
56413;SDS011;42318;48.452;19.526;2023-11-18T11:38:45;2.38;;;0.57;;
56413;SDS011;42318;48.452;19.526;2023-11-18T11:41:50;6.43;;;1.10;;
56413;SDS011;42318;48.452;19.526;2023-11-18T11:44:52;3.95;;;1.00;;
56413;SDS011;42318;48.452;19.526;2023-11-18T11:50:19;1.67;;;0.77;;
56413;SDS011;42318;48.452;19.526;2023-11-18T11:53:36;4.45;;;0.80;;
56413;SDS011;42318;48.452;19.526;2023-11-18T11:56:45;7.95;;;0.70;;
56413;SDS011;42318;48.452;19.526;2023-11-18T12:02:54;6.13;;;1.13;;
56413;SDS011;42318;48.452;19.526;2023-11-18T12:05:55;3.05;;;0.77;;
56413;SDS011;42318;48.452;19.526;2023-11-18T12:08:56;2.85;;;1.33;;
56413;SDS011;42318;48.452;19.526;2023-11-18T12:11:57;2.30;;;0.70;;
56413;SDS011;42318;48.452;19.526;2023-11-18T12:14:59;4.38;;;0.90;;
56413;SDS011;42318;48.452;19.526;2023-11-18T12:18:12;4.38;;;1.00;;
56413;SDS011;42318;48.452;19.526;2023-11-18T12:21:13;1.45;;;0.60;;
56413;SDS011;42318;48.452;19.526;2023-11-18T12:27:57;3.50;;;0.60;;
56413;SDS011;42318;48.452;19.526;2023-11-18T12:30:59;5.90;;;0.70;;
56413;SDS011;42318;48.452;19.526;2023-11-18T12:34:13;3.72;;;0.70;;
56413;SDS011;42318;48.452;19.526;2023-11-18T12:37:24;2.47;;;0.70;;
56413;SDS011;42318;48.452;19.526;2023-11-18T12:40:37;2.33;;;0.80;;
56413;SDS011;42318;48.452;19.526;2023-11-18T12:43:47;7.20;;;1.63;;
56413;SDS011;42318;48.452;19.526;2023-11-18T12:47:02;4.57;;;1.42;;
56413;SDS011;42318;48.452;19.526;2023-11-18T12:50:14;4.75;;;0.95;;
56413;SDS011;42318;48.452;19.526;2023-11-18T12:53:24;6.22;;;1.30;;
56413;SDS011;42318;48.452;19.526;2023-11-18T12:56:26;6.72;;;1.38;;
56413;SDS011;42318;48.452;19.526;2023-11-18T12:59:28;3.95;;;1.13;;
56413;SDS011;42318;48.452;19.526;2023-11-18T13:02:31;5.05;;;1.60;;
56413;SDS011;42318;48.452;19.526;2023-11-18T13:05:32;3.78;;;1.02;;
56413;SDS011;42318;48.452;19.526;2023-11-18T13:08:32;6.03;;;1.35;;
56413;SDS011;42318;48.452;19.526;2023-11-18T13:11:33;2.13;;;1.00;;
56413;SDS011;42318;48.452;19.526;2023-11-18T13:14:35;5.55;;;1.20;;
56413;SDS011;42318;48.452;19.526;2023-11-18T13:17:36;3.65;;;1.20;;
56413;SDS011;42318;48.452;19.526;2023-11-18T13:20:38;2.13;;;1.10;;
56413;SDS011;42318;48.452;19.526;2023-11-18T13:23:39;2.42;;;0.70;;
56413;SDS011;42318;48.452;19.526;2023-11-18T13:26:40;2.65;;;1.00;;
56413;SDS011;42318;48.452;19.526;2023-11-18T13:29:43;3.60;;;1.00;;
56413;SDS011;42318;48.452;19.526;2023-11-18T13:32:45;3.42;;;0.90;;
56413;SDS011;42318;48.452;19.526;2023-11-18T13:35:46;2.67;;;1.20;;
56413;SDS011;42318;48.452;19.526;2023-11-18T13:38:47;4.53;;;1.27;;
56413;SDS011;42318;48.452;19.526;2023-11-18T13:41:49;7.63;;;1.63;;
56413;SDS011;42318;48.452;19.526;2023-11-18T13:44:51;3.75;;;1.13;;
56413;SDS011;42318;48.452;19.526;2023-11-18T13:47:55;4.18;;;0.85;;
56413;SDS011;42318;48.452;19.526;2023-11-18T13:50:57;2.88;;;0.80;;
56413;SDS011;42318;48.452;19.526;2023-11-18T13:53:58;3.30;;;0.93;;
56413;SDS011;42318;48.452;19.526;2023-11-18T13:57:00;3.13;;;0.80;;
56413;SDS011;42318;48.452;19.526;2023-11-18T14:00:00;2.92;;;1.10;;
56413;SDS011;42318;48.452;19.526;2023-11-18T14:03:01;3.10;;;1.00;;
56413;SDS011;42318;48.452;19.526;2023-11-18T14:06:08;3.55;;;0.95;;
56413;SDS011;42318;48.452;19.526;2023-11-18T14:09:13;3.50;;;0.80;;
56413;SDS011;42318;48.452;19.526;2023-11-18T14:12:13;4.10;;;0.88;;
56413;SDS011;42318;48.452;19.526;2023-11-18T14:15:14;3.60;;;1.08;;
56413;SDS011;42318;48.452;19.526;2023-11-18T14:18:16;2.80;;;0.98;;
56413;SDS011;42318;48.452;19.526;2023-11-18T14:21:18;3.63;;;0.80;;
56413;SDS011;42318;48.452;19.526;2023-11-18T14:24:18;3.83;;;1.10;;
56413;SDS011;42318;48.452;19.526;2023-11-18T14:27:19;2.72;;;0.80;;
56413;SDS011;42318;48.452;19.526;2023-11-18T14:30:19;2.97;;;0.98;;
56413;SDS011;42318;48.452;19.526;2023-11-18T14:33:20;6.07;;;1.25;;
56413;SDS011;42318;48.452;19.526;2023-11-18T14:36:21;3.30;;;0.75;;
56413;SDS011;42318;48.452;19.526;2023-11-18T14:39:21;2.05;;;0.90;;
56413;SDS011;42318;48.452;19.526;2023-11-18T14:42:22;5.13;;;0.95;;
56413;SDS011;42318;48.452;19.526;2023-11-18T14:45:24;2.70;;;0.90;;
56413;SDS011;42318;48.452;19.526;2023-11-18T14:48:24;3.88;;;1.02;;
56413;SDS011;42318;48.452;19.526;2023-11-18T14:51:25;4.65;;;1.20;;
56413;SDS011;42318;48.452;19.526;2023-11-18T14:54:26;1.98;;;0.90;;
56413;SDS011;42318;48.452;19.526;2023-11-18T14:57:27;2.58;;;0.75;;
56413;SDS011;42318;48.452;19.526;2023-11-18T15:00:29;2.97;;;0.63;;
56413;SDS011;42318;48.452;19.526;2023-11-18T15:03:35;2.25;;;0.90;;
56413;SDS011;42318;48.452;19.526;2023-11-18T15:06:36;6.10;;;1.40;;
56413;SDS011;42318;48.452;19.526;2023-11-18T15:09:36;1.83;;;1.00;;
56413;SDS011;42318;48.452;19.526;2023-11-18T15:12:41;5.05;;;0.98;;
56413;SDS011;42318;48.452;19.526;2023-11-18T15:15:42;7.20;;;1.17;;
56413;SDS011;42318;48.452;19.526;2023-11-18T15:18:45;2.60;;;1.63;;
56413;SDS011;42318;48.452;19.526;2023-11-18T15:21:52;7.13;;;1.25;;
56413;SDS011;42318;48.452;19.526;2023-11-18T15:24:52;5.28;;;1.13;;
56413;SDS011;42318;48.452;19.526;2023-11-18T15:27:59;6.15;;;1.15;;
56413;SDS011;42318;48.452;19.526;2023-11-18T15:31:00;6.18;;;1.33;;
56413;SDS011;42318;48.452;19.526;2023-11-18T15:34:04;7.63;;;1.50;;
56413;SDS011;42318;48.452;19.526;2023-11-18T15:37:05;10.38;;;1.73;;
56413;SDS011;42318;48.452;19.526;2023-11-18T15:40:07;3.13;;;0.93;;
56413;SDS011;42318;48.452;19.526;2023-11-18T15:43:13;14.02;;;1.90;;
56413;SDS011;42318;48.452;19.526;2023-11-18T15:46:13;18.55;;;2.15;;
56413;SDS011;42318;48.452;19.526;2023-11-18T15:49:14;14.15;;;1.80;;
56413;SDS011;42318;48.452;19.526;2023-11-18T15:52:15;12.32;;;2.70;;
56413;SDS011;42318;48.452;19.526;2023-11-18T15:55:17;17.10;;;2.25;;
56413;SDS011;42318;48.452;19.526;2023-11-18T15:58:19;11.52;;;2.28;;
56413;SDS011;42318;48.452;19.526;2023-11-18T16:01:22;12.23;;;2.05;;
56413;SDS011;42318;48.452;19.526;2023-11-18T16:04:23;21.95;;;5.57;;
56413;SDS011;42318;48.452;19.526;2023-11-18T16:07:24;13.00;;;2.30;;
56413;SDS011;42318;48.452;19.526;2023-11-18T16:10:26;15.32;;;1.77;;
56413;SDS011;42318;48.452;19.526;2023-11-18T16:13:27;19.40;;;3.03;;
56413;SDS011;42318;48.452;19.526;2023-11-18T16:16:29;12.45;;;3.33;;
56413;SDS011;42318;48.452;19.526;2023-11-18T16:19:30;15.27;;;3.00;;
56413;SDS011;42318;48.452;19.526;2023-11-18T16:22:30;10.90;;;2.33;;
56413;SDS011;42318;48.452;19.526;2023-11-18T16:25:31;12.02;;;2.65;;
56413;SDS011;42318;48.452;19.526;2023-11-18T16:28:34;16.73;;;3.60;;
56413;SDS011;42318;48.452;19.526;2023-11-18T16:31:35;16.30;;;3.60;;
56413;SDS011;42318;48.452;19.526;2023-11-18T16:34:36;17.70;;;2.75;;
56413;SDS011;42318;48.452;19.526;2023-11-18T16:37:38;17.63;;;3.33;;
56413;SDS011;42318;48.452;19.526;2023-11-18T16:40:42;20.42;;;3.33;;
56413;SDS011;42318;48.452;19.526;2023-11-18T16:43:42;17.70;;;3.60;;
56413;SDS011;42318;48.452;19.526;2023-11-18T16:46:43;14.00;;;2.83;;
56413;SDS011;42318;48.452;19.526;2023-11-18T16:49:44;13.35;;;3.03;;
56413;SDS011;42318;48.452;19.526;2023-11-18T16:52:45;14.50;;;2.83;;
56413;SDS011;42318;48.452;19.526;2023-11-18T16:55:46;15.90;;;2.63;;
56413;SDS011;42318;48.452;19.526;2023-11-18T16:58:46;14.50;;;3.33;;
56413;SDS011;42318;48.452;19.526;2023-11-18T17:01:47;15.38;;;3.03;;
56413;SDS011;42318;48.452;19.526;2023-11-18T17:04:48;19.33;;;3.75;;
56413;SDS011;42318;48.452;19.526;2023-11-18T17:07:49;15.40;;;3.60;;
56413;SDS011;42318;48.452;19.526;2023-11-18T17:10:50;9.32;;;2.95;;
56413;SDS011;42318;48.452;19.526;2023-11-18T17:13:53;12.27;;;3.60;;
56413;SDS011;42318;48.452;19.526;2023-11-18T17:16:54;12.02;;;3.00;;
56413;SDS011;42318;48.452;19.526;2023-11-18T17:19:55;11.27;;;2.63;;
56413;SDS011;42318;48.452;19.526;2023-11-18T17:22:56;12.98;;;3.00;;
56413;SDS011;42318;48.452;19.526;2023-11-18T17:25:56;6.80;;;2.67;;
56413;SDS011;42318;48.452;19.526;2023-11-18T17:28:59;11.90;;;2.92;;
56413;SDS011;42318;48.452;19.526;2023-11-18T17:32:00;9.63;;;2.60;;
56413;SDS011;42318;48.452;19.526;2023-11-18T17:35:00;12.43;;;3.08;;
56413;SDS011;42318;48.452;19.526;2023-11-18T17:38:01;8.57;;;2.45;;
56413;SDS011;42318;48.452;19.526;2023-11-18T17:41:02;11.77;;;2.22;;
56413;SDS011;42318;48.452;19.526;2023-11-18T17:44:03;7.78;;;2.85;;
56413;SDS011;42318;48.452;19.526;2023-11-18T17:47:04;8.77;;;2.28;;
56413;SDS011;42318;48.452;19.526;2023-11-18T17:50:07;9.52;;;2.30;;
56413;SDS011;42318;48.452;19.526;2023-11-18T17:53:09;7.60;;;2.08;;
56413;SDS011;42318;48.452;19.526;2023-11-18T17:56:11;13.13;;;2.88;;
56413;SDS011;42318;48.452;19.526;2023-11-18T17:59:13;9.70;;;2.75;;
56413;SDS011;42318;48.452;19.526;2023-11-18T18:02:14;8.00;;;2.30;;
56413;SDS011;42318;48.452;19.526;2023-11-18T18:05:15;9.60;;;2.67;;
56413;SDS011;42318;48.452;19.526;2023-11-18T18:08:16;6.18;;;2.25;;
56413;SDS011;42318;48.452;19.526;2023-11-18T18:11:17;9.38;;;2.22;;
56413;SDS011;42318;48.452;19.526;2023-11-18T18:14:17;13.07;;;2.30;;
56413;SDS011;42318;48.452;19.526;2023-11-18T18:17:18;6.05;;;2.13;;